sensor_id;sensor_type;location;lat;lon;timestamp;P1;durP1;ratioP1;P2;durP2;ratioP2
15228;SDS011;7717;47.792;12.076;2022-10-31T00:02:04;5.77;;;4.40;;
15228;SDS011;7717;47.792;12.076;2022-10-31T00:04:30;7.07;;;4.47;;
15228;SDS011;7717;47.792;12.076;2022-10-31T00:06:55;7.37;;;4.37;;
15228;SDS011;7717;47.792;12.076;2022-10-31T00:09:20;6.17;;;4.60;;
15228;SDS011;7717;47.792;12.076;2022-10-31T00:11:46;8.97;;;4.00;;
15228;SDS011;7717;47.792;12.076;2022-10-31T00:14:11;6.13;;;4.20;;
15228;SDS011;7717;47.792;12.076;2022-10-31T00:16:36;10.50;;;4.10;;
15228;SDS011;7717;47.792;12.076;2022-10-31T00:19:03;7.37;;;4.40;;
15228;SDS011;7717;47.792;12.076;2022-10-31T00:21:30;7.63;;;3.90;;
15228;SDS011;7717;47.792;12.076;2022-10-31T00:23:57;7.30;;;4.47;;
15228;SDS011;7717;47.792;12.076;2022-10-31T00:26:23;8.33;;;4.20;;
15228;SDS011;7717;47.792;12.076;2022-10-31T00:28:49;8.80;;;4.47;;
15228;SDS011;7717;47.792;12.076;2022-10-31T00:31:16;9.60;;;4.73;;
15228;SDS011;7717;47.792;12.076;2022-10-31T00:33:41;6.77;;;3.97;;
15228;SDS011;7717;47.792;12.076;2022-10-31T00:36:07;7.33;;;4.50;;
15228;SDS011;7717;47.792;12.076;2022-10-31T00:38:37;8.13;;;4.43;;
15228;SDS011;7717;47.792;12.076;2022-10-31T00:41:02;5.90;;;4.00;;
15228;SDS011;7717;47.792;12.076;2022-10-31T00:43:28;5.67;;;3.87;;
15228;SDS011;7717;47.792;12.076;2022-10-31T00:45:53;6.53;;;4.40;;
15228;SDS011;7717;47.792;12.076;2022-10-31T00:48:18;6.90;;;4.47;;
15228;SDS011;7717;47.792;12.076;2022-10-31T00:50:44;8.03;;;5.07;;
15228;SDS011;7717;47.792;12.076;2022-10-31T00:53:10;8.43;;;4.37;;
15228;SDS011;7717;47.792;12.076;2022-10-31T00:55:35;11.90;;;4.67;;
15228;SDS011;7717;47.792;12.076;2022-10-31T00:58:01;6.33;;;4.23;;
15228;SDS011;7717;47.792;12.076;2022-10-31T01:00:27;8.57;;;5.10;;
15228;SDS011;7717;47.792;12.076;2022-10-31T01:02:53;5.57;;;3.70;;
15228;SDS011;7717;47.792;12.076;2022-10-31T01:05:18;6.40;;;3.70;;
15228;SDS011;7717;47.792;12.076;2022-10-31T01:07:44;7.90;;;4.53;;
15228;SDS011;7717;47.792;12.076;2022-10-31T01:10:10;7.37;;;4.13;;
15228;SDS011;7717;47.792;12.076;2022-10-31T01:12:36;5.60;;;4.10;;
15228;SDS011;7717;47.792;12.076;2022-10-31T01:15:02;10.00;;;4.33;;
15228;SDS011;7717;47.792;12.076;2022-10-31T01:17:29;5.90;;;3.67;;
15228;SDS011;7717;47.792;12.076;2022-10-31T01:19:54;7.47;;;4.20;;
15228;SDS011;7717;47.792;12.076;2022-10-31T01:22:19;6.47;;;3.90;;
15228;SDS011;7717;47.792;12.076;2022-10-31T01:24:45;6.07;;;3.87;;
15228;SDS011;7717;47.792;12.076;2022-10-31T01:27:10;5.93;;;3.80;;
15228;SDS011;7717;47.792;12.076;2022-10-31T01:29:36;6.53;;;4.13;;
15228;SDS011;7717;47.792;12.076;2022-10-31T01:32:01;4.60;;;3.63;;
15228;SDS011;7717;47.792;12.076;2022-10-31T01:34:26;7.27;;;4.40;;
15228;SDS011;7717;47.792;12.076;2022-10-31T01:36:52;7.80;;;3.67;;
15228;SDS011;7717;47.792;12.076;2022-10-31T01:39:18;6.23;;;4.20;;
15228;SDS011;7717;47.792;12.076;2022-10-31T01:41:48;5.07;;;3.90;;
15228;SDS011;7717;47.792;12.076;2022-10-31T01:46:41;5.90;;;4.20;;
15228;SDS011;7717;47.792;12.076;2022-10-31T01:52:12;6.47;;;3.73;;
15228;SDS011;7717;47.792;12.076;2022-10-31T01:54:40;7.63;;;4.47;;
15228;SDS011;7717;47.792;12.076;2022-10-31T01:57:08;8.30;;;4.37;;
15228;SDS011;7717;47.792;12.076;2022-10-31T01:59:39;6.83;;;4.23;;
15228;SDS011;7717;47.792;12.076;2022-10-31T02:02:09;6.13;;;4.33;;
15228;SDS011;7717;47.792;12.076;2022-10-31T02:04:35;6.53;;;3.80;;
15228;SDS011;7717;47.792;12.076;2022-10-31T02:07:18;6.43;;;4.20;;
15228;SDS011;7717;47.792;12.076;2022-10-31T02:09:52;9.00;;;4.03;;
15228;SDS011;7717;47.792;12.076;2022-10-31T02:12:21;7.40;;;4.50;;
15228;SDS011;7717;47.792;12.076;2022-10-31T02:14:47;8.90;;;4.07;;
15228;SDS011;7717;47.792;12.076;2022-10-31T02:17:12;6.13;;;3.40;;
15228;SDS011;7717;47.792;12.076;2022-10-31T02:22:31;6.83;;;3.37;;
15228;SDS011;7717;47.792;12.076;2022-10-31T02:36:37;5.73;;;3.57;;
15228;SDS011;7717;47.792;12.076;2022-10-31T02:39:26;5.17;;;3.33;;
15228;SDS011;7717;47.792;12.076;2022-10-31T02:42:04;6.97;;;4.50;;
15228;SDS011;7717;47.792;12.076;2022-10-31T02:44:39;6.40;;;3.80;;
15228;SDS011;7717;47.792;12.076;2022-10-31T02:47:11;6.17;;;4.13;;
15228;SDS011;7717;47.792;12.076;2022-10-31T02:52:30;4.90;;;3.53;;
15228;SDS011;7717;47.792;12.076;2022-10-31T02:54:57;5.73;;;3.63;;
15228;SDS011;7717;47.792;12.076;2022-10-31T02:57:32;5.87;;;3.17;;
15228;SDS011;7717;47.792;12.076;2022-10-31T03:00:01;4.07;;;3.30;;
15228;SDS011;7717;47.792;12.076;2022-10-31T03:02:35;4.97;;;3.70;;
15228;SDS011;7717;47.792;12.076;2022-10-31T03:07:53;6.17;;;3.50;;
15228;SDS011;7717;47.792;12.076;2022-10-31T03:10:43;6.43;;;3.40;;
15228;SDS011;7717;47.792;12.076;2022-10-31T03:15:43;9.17;;;3.80;;
15228;SDS011;7717;47.792;12.076;2022-10-31T03:20:59;5.17;;;3.40;;
15228;SDS011;7717;47.792;12.076;2022-10-31T03:23:29;8.23;;;3.47;;
15228;SDS011;7717;47.792;12.076;2022-10-31T03:25:56;5.23;;;3.50;;
15228;SDS011;7717;47.792;12.076;2022-10-31T03:28:28;5.33;;;3.50;;
15228;SDS011;7717;47.792;12.076;2022-10-31T03:30:58;3.70;;;3.27;;
15228;SDS011;7717;47.792;12.076;2022-10-31T03:33:28;5.20;;;3.53;;
15228;SDS011;7717;47.792;12.076;2022-10-31T03:35:58;6.13;;;4.00;;
15228;SDS011;7717;47.792;12.076;2022-10-31T03:38:28;4.30;;;3.13;;
15228;SDS011;7717;47.792;12.076;2022-10-31T03:40:54;7.37;;;3.33;;
15228;SDS011;7717;47.792;12.076;2022-10-31T03:43:24;6.20;;;3.30;;
15228;SDS011;7717;47.792;12.076;2022-10-31T03:45:55;5.40;;;3.43;;
15228;SDS011;7717;47.792;12.076;2022-10-31T03:48:20;5.03;;;4.33;;
15228;SDS011;7717;47.792;12.076;2022-10-31T03:53:22;3.53;;;3.23;;
15228;SDS011;7717;47.792;12.076;2022-10-31T03:55:59;5.50;;;3.53;;
15228;SDS011;7717;47.792;12.076;2022-10-31T03:58:34;5.57;;;3.23;;
15228;SDS011;7717;47.792;12.076;2022-10-31T04:01:05;4.17;;;3.17;;
15228;SDS011;7717;47.792;12.076;2022-10-31T04:03:34;3.80;;;3.20;;
15228;SDS011;7717;47.792;12.076;2022-10-31T04:06:04;4.50;;;3.47;;
15228;SDS011;7717;47.792;12.076;2022-10-31T04:08:33;6.80;;;3.63;;
15228;SDS011;7717;47.792;12.076;2022-10-31T04:11:04;5.27;;;3.10;;
15228;SDS011;7717;47.792;12.076;2022-10-31T04:13:33;7.03;;;3.63;;
15228;SDS011;7717;47.792;12.076;2022-10-31T04:16:02;7.67;;;3.03;;
15228;SDS011;7717;47.792;12.076;2022-10-31T04:18:28;6.40;;;3.07;;
15228;SDS011;7717;47.792;12.076;2022-10-31T04:21:01;5.23;;;3.20;;
15228;SDS011;7717;47.792;12.076;2022-10-31T04:23:28;6.20;;;3.20;;
15228;SDS011;7717;47.792;12.076;2022-10-31T04:25:54;7.63;;;3.27;;
15228;SDS011;7717;47.792;12.076;2022-10-31T04:28:20;6.40;;;3.43;;
15228;SDS011;7717;47.792;12.076;2022-10-31T04:30:45;7.03;;;3.30;;
15228;SDS011;7717;47.792;12.076;2022-10-31T04:33:11;4.73;;;3.30;;
15228;SDS011;7717;47.792;12.076;2022-10-31T04:35:36;7.33;;;3.60;;
15228;SDS011;7717;47.792;12.076;2022-10-31T04:38:01;4.57;;;3.10;;
15228;SDS011;7717;47.792;12.076;2022-10-31T04:40:27;7.47;;;3.80;;
15228;SDS011;7717;47.792;12.076;2022-10-31T04:42:52;6.20;;;3.77;;
15228;SDS011;7717;47.792;12.076;2022-10-31T04:45:18;4.63;;;3.30;;
15228;SDS011;7717;47.792;12.076;2022-10-31T04:47:43;4.67;;;3.80;;
15228;SDS011;7717;47.792;12.076;2022-10-31T04:50:09;3.83;;;3.00;;
15228;SDS011;7717;47.792;12.076;2022-10-31T04:52:41;6.57;;;3.80;;
15228;SDS011;7717;47.792;12.076;2022-10-31T04:55:13;8.60;;;3.70;;
15228;SDS011;7717;47.792;12.076;2022-10-31T04:57:46;6.10;;;3.97;;
15228;SDS011;7717;47.792;12.076;2022-10-31T05:00:13;6.20;;;3.67;;
15228;SDS011;7717;47.792;12.076;2022-10-31T05:02:44;3.90;;;3.20;;
15228;SDS011;7717;47.792;12.076;2022-10-31T05:05:11;5.07;;;4.40;;
15228;SDS011;7717;47.792;12.076;2022-10-31T05:07:38;4.60;;;3.30;;
15228;SDS011;7717;47.792;12.076;2022-10-31T05:10:11;4.50;;;2.97;;
15228;SDS011;7717;47.792;12.076;2022-10-31T05:12:38;4.93;;;3.43;;
15228;SDS011;7717;47.792;12.076;2022-10-31T05:15:10;4.57;;;3.43;;
15228;SDS011;7717;47.792;12.076;2022-10-31T05:17:35;6.67;;;3.40;;
15228;SDS011;7717;47.792;12.076;2022-10-31T05:20:00;4.77;;;3.60;;
15228;SDS011;7717;47.792;12.076;2022-10-31T05:22:26;6.70;;;3.60;;
15228;SDS011;7717;47.792;12.076;2022-10-31T05:24:51;4.37;;;2.90;;
15228;SDS011;7717;47.792;12.076;2022-10-31T05:27:16;4.33;;;3.00;;
15228;SDS011;7717;47.792;12.076;2022-10-31T05:29:42;3.90;;;3.27;;
15228;SDS011;7717;47.792;12.076;2022-10-31T05:32:07;5.47;;;3.27;;
15228;SDS011;7717;47.792;12.076;2022-10-31T05:34:32;4.57;;;3.63;;
15228;SDS011;7717;47.792;12.076;2022-10-31T05:36:58;4.33;;;3.07;;
15228;SDS011;7717;47.792;12.076;2022-10-31T05:39:23;4.73;;;2.87;;
15228;SDS011;7717;47.792;12.076;2022-10-31T05:41:48;4.33;;;3.77;;
15228;SDS011;7717;47.792;12.076;2022-10-31T05:44:14;3.70;;;2.77;;
15228;SDS011;7717;47.792;12.076;2022-10-31T05:46:39;9.83;;;3.20;;
15228;SDS011;7717;47.792;12.076;2022-10-31T05:49:04;3.47;;;2.97;;
15228;SDS011;7717;47.792;12.076;2022-10-31T05:51:30;5.73;;;3.10;;
15228;SDS011;7717;47.792;12.076;2022-10-31T05:53:55;4.70;;;2.87;;
15228;SDS011;7717;47.792;12.076;2022-10-31T05:56:21;5.90;;;3.00;;
15228;SDS011;7717;47.792;12.076;2022-10-31T05:58:46;4.20;;;2.93;;
15228;SDS011;7717;47.792;12.076;2022-10-31T06:01:11;4.03;;;3.40;;
15228;SDS011;7717;47.792;12.076;2022-10-31T06:03:37;6.67;;;3.70;;
15228;SDS011;7717;47.792;12.076;2022-10-31T06:06:02;7.37;;;3.83;;
15228;SDS011;7717;47.792;12.076;2022-10-31T06:08:28;9.67;;;4.00;;
15228;SDS011;7717;47.792;12.076;2022-10-31T06:10:54;3.63;;;3.20;;
15228;SDS011;7717;47.792;12.076;2022-10-31T06:13:19;6.53;;;5.27;;
15228;SDS011;7717;47.792;12.076;2022-10-31T06:15:45;6.60;;;4.13;;
15228;SDS011;7717;47.792;12.076;2022-10-31T06:18:10;7.07;;;3.60;;
15228;SDS011;7717;47.792;12.076;2022-10-31T06:20:35;3.30;;;3.00;;
15228;SDS011;7717;47.792;12.076;2022-10-31T06:23:01;3.37;;;3.03;;
15228;SDS011;7717;47.792;12.076;2022-10-31T06:25:27;5.80;;;3.30;;
15228;SDS011;7717;47.792;12.076;2022-10-31T06:27:53;6.53;;;3.90;;
15228;SDS011;7717;47.792;12.076;2022-10-31T06:30:19;8.13;;;4.33;;
15228;SDS011;7717;47.792;12.076;2022-10-31T06:32:44;3.50;;;3.13;;
15228;SDS011;7717;47.792;12.076;2022-10-31T06:35:10;7.67;;;5.33;;
15228;SDS011;7717;47.792;12.076;2022-10-31T06:37:36;6.27;;;4.17;;
15228;SDS011;7717;47.792;12.076;2022-10-31T06:40:02;5.80;;;3.63;;
15228;SDS011;7717;47.792;12.076;2022-10-31T06:42:27;5.27;;;2.90;;
15228;SDS011;7717;47.792;12.076;2022-10-31T06:44:52;5.43;;;3.33;;
15228;SDS011;7717;47.792;12.076;2022-10-31T06:47:18;4.70;;;4.03;;
15228;SDS011;7717;47.792;12.076;2022-10-31T06:49:44;10.90;;;3.90;;
15228;SDS011;7717;47.792;12.076;2022-10-31T06:52:10;5.87;;;4.17;;
15228;SDS011;7717;47.792;12.076;2022-10-31T06:54:35;4.77;;;4.30;;
15228;SDS011;7717;47.792;12.076;2022-10-31T06:57:00;7.07;;;4.57;;
15228;SDS011;7717;47.792;12.076;2022-10-31T06:59:26;5.03;;;4.20;;
15228;SDS011;7717;47.792;12.076;2022-10-31T07:01:51;5.83;;;4.13;;
15228;SDS011;7717;47.792;12.076;2022-10-31T07:04:16;4.90;;;3.77;;
15228;SDS011;7717;47.792;12.076;2022-10-31T07:06:42;4.17;;;3.60;;
15228;SDS011;7717;47.792;12.076;2022-10-31T07:09:07;7.27;;;3.53;;
15228;SDS011;7717;47.792;12.076;2022-10-31T07:11:32;6.60;;;4.00;;
15228;SDS011;7717;47.792;12.076;2022-10-31T07:13:58;7.60;;;3.57;;
15228;SDS011;7717;47.792;12.076;2022-10-31T07:16:23;7.73;;;3.93;;
15228;SDS011;7717;47.792;12.076;2022-10-31T07:18:49;10.30;;;3.87;;
15228;SDS011;7717;47.792;12.076;2022-10-31T07:21:15;8.77;;;3.93;;
15228;SDS011;7717;47.792;12.076;2022-10-31T07:23:40;7.10;;;3.80;;
15228;SDS011;7717;47.792;12.076;2022-10-31T07:26:06;6.90;;;4.43;;
15228;SDS011;7717;47.792;12.076;2022-10-31T07:28:31;7.97;;;4.27;;
15228;SDS011;7717;47.792;12.076;2022-10-31T07:30:57;5.20;;;3.80;;
15228;SDS011;7717;47.792;12.076;2022-10-31T07:33:23;4.80;;;3.50;;
15228;SDS011;7717;47.792;12.076;2022-10-31T07:35:51;8.77;;;4.83;;
15228;SDS011;7717;47.792;12.076;2022-10-31T07:38:16;7.00;;;3.87;;
15228;SDS011;7717;47.792;12.076;2022-10-31T07:40:42;11.37;;;4.23;;
15228;SDS011;7717;47.792;12.076;2022-10-31T07:43:08;6.17;;;3.87;;
15228;SDS011;7717;47.792;12.076;2022-10-31T07:45:38;6.43;;;4.07;;
15228;SDS011;7717;47.792;12.076;2022-10-31T07:48:03;8.57;;;4.50;;
15228;SDS011;7717;47.792;12.076;2022-10-31T07:50:29;7.00;;;3.73;;
15228;SDS011;7717;47.792;12.076;2022-10-31T07:53:06;8.97;;;4.37;;
15228;SDS011;7717;47.792;12.076;2022-10-31T07:55:33;4.63;;;3.77;;
15228;SDS011;7717;47.792;12.076;2022-10-31T07:58:00;6.07;;;3.77;;
15228;SDS011;7717;47.792;12.076;2022-10-31T08:00:31;8.23;;;3.77;;
15228;SDS011;7717;47.792;12.076;2022-10-31T08:02:58;9.17;;;4.17;;
15228;SDS011;7717;47.792;12.076;2022-10-31T08:05:28;4.23;;;3.20;;
15228;SDS011;7717;47.792;12.076;2022-10-31T08:07:54;8.73;;;3.70;;
15228;SDS011;7717;47.792;12.076;2022-10-31T08:10:20;6.33;;;3.57;;
15228;SDS011;7717;47.792;12.076;2022-10-31T08:12:46;4.37;;;3.10;;
15228;SDS011;7717;47.792;12.076;2022-10-31T08:15:12;6.43;;;3.80;;
15228;SDS011;7717;47.792;12.076;2022-10-31T08:17:37;5.80;;;2.90;;
15228;SDS011;7717;47.792;12.076;2022-10-31T08:20:03;5.67;;;3.07;;
15228;SDS011;7717;47.792;12.076;2022-10-31T08:22:29;6.60;;;3.53;;
15228;SDS011;7717;47.792;12.076;2022-10-31T08:24:55;5.30;;;2.93;;
15228;SDS011;7717;47.792;12.076;2022-10-31T08:27:20;6.63;;;3.57;;
15228;SDS011;7717;47.792;12.076;2022-10-31T08:29:45;5.30;;;3.30;;
15228;SDS011;7717;47.792;12.076;2022-10-31T08:32:11;4.47;;;3.13;;
15228;SDS011;7717;47.792;12.076;2022-10-31T08:34:37;6.87;;;3.80;;
15228;SDS011;7717;47.792;12.076;2022-10-31T08:37:02;11.60;;;5.47;;
15228;SDS011;7717;47.792;12.076;2022-10-31T08:39:28;7.20;;;3.63;;
15228;SDS011;7717;47.792;12.076;2022-10-31T08:41:53;6.30;;;2.80;;
15228;SDS011;7717;47.792;12.076;2022-10-31T08:44:18;6.70;;;3.07;;
15228;SDS011;7717;47.792;12.076;2022-10-31T08:46:44;5.60;;;2.90;;
15228;SDS011;7717;47.792;12.076;2022-10-31T08:49:09;4.57;;;2.60;;
15228;SDS011;7717;47.792;12.076;2022-10-31T08:51:34;5.53;;;3.13;;
15228;SDS011;7717;47.792;12.076;2022-10-31T08:54:00;7.70;;;3.00;;
15228;SDS011;7717;47.792;12.076;2022-10-31T08:56:25;3.73;;;2.07;;
15228;SDS011;7717;47.792;12.076;2022-10-31T08:58:52;7.00;;;2.40;;
15228;SDS011;7717;47.792;12.076;2022-10-31T09:01:18;5.43;;;2.33;;
15228;SDS011;7717;47.792;12.076;2022-10-31T09:03:43;4.07;;;2.30;;
15228;SDS011;7717;47.792;12.076;2022-10-31T09:06:08;6.53;;;2.23;;
15228;SDS011;7717;47.792;12.076;2022-10-31T09:08:34;8.90;;;2.90;;
15228;SDS011;7717;47.792;12.076;2022-10-31T09:11:00;5.03;;;2.70;;
15228;SDS011;7717;47.792;12.076;2022-10-31T09:13:26;4.70;;;2.33;;
15228;SDS011;7717;47.792;12.076;2022-10-31T09:15:51;7.37;;;2.40;;
15228;SDS011;7717;47.792;12.076;2022-10-31T09:18:18;4.30;;;2.60;;
15228;SDS011;7717;47.792;12.076;2022-10-31T09:20:46;5.17;;;2.50;;
15228;SDS011;7717;47.792;12.076;2022-10-31T09:23:13;4.00;;;2.20;;
15228;SDS011;7717;47.792;12.076;2022-10-31T09:25:40;7.97;;;3.00;;
15228;SDS011;7717;47.792;12.076;2022-10-31T09:28:07;5.63;;;2.83;;
15228;SDS011;7717;47.792;12.076;2022-10-31T09:30:35;5.95;;;2.58;;
15228;SDS011;7717;47.792;12.076;2022-10-31T09:33:02;6.75;;;2.55;;
15228;SDS011;7717;47.792;12.076;2022-10-31T09:35:29;7.63;;;2.45;;
15228;SDS011;7717;47.792;12.076;2022-10-31T09:37:58;4.50;;;2.45;;
15228;SDS011;7717;47.792;12.076;2022-10-31T09:40:29;4.25;;;2.33;;
15228;SDS011;7717;47.792;12.076;2022-10-31T09:43:03;6.10;;;2.42;;
15228;SDS011;7717;47.792;12.076;2022-10-31T09:51:37;5.63;;;3.08;;
15228;SDS011;7717;47.792;12.076;2022-10-31T09:54:11;4.22;;;2.38;;
15228;SDS011;7717;47.792;12.076;2022-10-31T09:56:40;2.60;;;1.90;;
15228;SDS011;7717;47.792;12.076;2022-10-31T09:59:10;7.18;;;2.63;;
15228;SDS011;7717;47.792;12.076;2022-10-31T10:01:49;4.72;;;2.15;;
15228;SDS011;7717;47.792;12.076;2022-10-31T10:04:28;4.13;;;2.95;;
15228;SDS011;7717;47.792;12.076;2022-10-31T10:06:58;4.18;;;2.47;;
15228;SDS011;7717;47.792;12.076;2022-10-31T10:09:27;8.02;;;2.53;;
15228;SDS011;7717;47.792;12.076;2022-10-31T10:15:39;4.80;;;2.30;;
15228;SDS011;7717;47.792;12.076;2022-10-31T10:20:58;5.65;;;2.13;;
15228;SDS011;7717;47.792;12.076;2022-10-31T10:26:20;7.40;;;2.33;;
15228;SDS011;7717;47.792;12.076;2022-10-31T10:28:49;6.47;;;2.30;;
15228;SDS011;7717;47.792;12.076;2022-10-31T10:31:37;4.18;;;2.15;;
15228;SDS011;7717;47.792;12.076;2022-10-31T10:36:40;5.88;;;2.15;;
15228;SDS011;7717;47.792;12.076;2022-10-31T10:41:55;6.45;;;2.20;;
15228;SDS011;7717;47.792;12.076;2022-10-31T10:44:45;6.38;;;1.95;;
15228;SDS011;7717;47.792;12.076;2022-10-31T10:47:35;4.63;;;2.35;;
15228;SDS011;7717;47.792;12.076;2022-10-31T10:50:50;5.13;;;2.72;;
15228;SDS011;7717;47.792;12.076;2022-10-31T10:53:05;8.88;;;2.83;;
15228;SDS011;7717;47.792;12.076;2022-10-31T10:56:00;4.32;;;2.50;;
15228;SDS011;7717;47.792;12.076;2022-10-31T10:58:36;7.70;;;2.50;;
15228;SDS011;7717;47.792;12.076;2022-10-31T11:01:11;3.40;;;2.10;;
15228;SDS011;7717;47.792;12.076;2022-10-31T11:03:38;5.38;;;2.60;;
15228;SDS011;7717;47.792;12.076;2022-10-31T11:06:15;5.35;;;2.67;;
15228;SDS011;7717;47.792;12.076;2022-10-31T11:08:42;7.75;;;2.22;;
15228;SDS011;7717;47.792;12.076;2022-10-31T11:11:10;4.35;;;1.75;;
15228;SDS011;7717;47.792;12.076;2022-10-31T11:13:50;7.30;;;2.80;;
15228;SDS011;7717;47.792;12.076;2022-10-31T11:16:30;4.67;;;2.70;;
15228;SDS011;7717;47.792;12.076;2022-10-31T11:19:05;3.33;;;1.90;;
15228;SDS011;7717;47.792;12.076;2022-10-31T11:21:32;7.43;;;2.67;;
15228;SDS011;7717;47.792;12.076;2022-10-31T11:24:03;6.83;;;2.40;;
15228;SDS011;7717;47.792;12.076;2022-10-31T11:26:29;6.73;;;2.27;;
15228;SDS011;7717;47.792;12.076;2022-10-31T11:28:58;7.47;;;2.27;;
15228;SDS011;7717;47.792;12.076;2022-10-31T11:31:24;9.93;;;2.33;;
15228;SDS011;7717;47.792;12.076;2022-10-31T11:33:54;8.70;;;2.27;;
15228;SDS011;7717;47.792;12.076;2022-10-31T11:36:25;8.33;;;2.20;;
15228;SDS011;7717;47.792;12.076;2022-10-31T11:38:51;8.90;;;2.70;;
15228;SDS011;7717;47.792;12.076;2022-10-31T11:41:28;8.50;;;2.33;;
15228;SDS011;7717;47.792;12.076;2022-10-31T11:46:52;5.47;;;2.60;;
15228;SDS011;7717;47.792;12.076;2022-10-31T11:52:04;6.37;;;2.37;;
15228;SDS011;7717;47.792;12.076;2022-10-31T11:54:49;8.87;;;2.43;;
15228;SDS011;7717;47.792;12.076;2022-10-31T11:57:26;5.67;;;2.10;;
15228;SDS011;7717;47.792;12.076;2022-10-31T11:59:57;6.57;;;2.50;;
15228;SDS011;7717;47.792;12.076;2022-10-31T12:02:24;8.57;;;2.37;;
15228;SDS011;7717;47.792;12.076;2022-10-31T12:04:52;9.13;;;2.50;;
15228;SDS011;7717;47.792;12.076;2022-10-31T12:07:25;4.60;;;2.60;;
15228;SDS011;7717;47.792;12.076;2022-10-31T12:09:51;5.87;;;2.53;;
15228;SDS011;7717;47.792;12.076;2022-10-31T12:12:31;5.13;;;2.47;;
15228;SDS011;7717;47.792;12.076;2022-10-31T12:20:54;5.17;;;3.03;;
15228;SDS011;7717;47.792;12.076;2022-10-31T12:28:49;4.63;;;3.07;;
15228;SDS011;7717;47.792;12.076;2022-10-31T12:31:48;4.67;;;2.23;;
15228;SDS011;7717;47.792;12.076;2022-10-31T12:43:14;6.13;;;2.50;;
15228;SDS011;7717;47.792;12.076;2022-10-31T12:59:07;7.23;;;2.60;;
15228;SDS011;7717;47.792;12.076;2022-10-31T13:02:02;5.50;;;2.30;;
15228;SDS011;7717;47.792;12.076;2022-10-31T13:04:42;9.93;;;2.70;;
15228;SDS011;7717;47.792;12.076;2022-10-31T13:07:15;5.20;;;2.50;;
15228;SDS011;7717;47.792;12.076;2022-10-31T13:13:23;4.70;;;2.10;;
15228;SDS011;7717;47.792;12.076;2022-10-31T13:16:03;6.53;;;2.33;;
15228;SDS011;7717;47.792;12.076;2022-10-31T13:18:46;5.63;;;2.70;;
15228;SDS011;7717;47.792;12.076;2022-10-31T13:21:17;4.43;;;2.90;;
15228;SDS011;7717;47.792;12.076;2022-10-31T13:23:58;5.03;;;2.70;;
15228;SDS011;7717;47.792;12.076;2022-10-31T13:31:43;4.27;;;2.40;;
15228;SDS011;7717;47.792;12.076;2022-10-31T13:34:16;6.13;;;2.27;;
15228;SDS011;7717;47.792;12.076;2022-10-31T13:36:51;5.87;;;2.60;;
15228;SDS011;7717;47.792;12.076;2022-10-31T13:39:26;3.70;;;2.23;;
15228;SDS011;7717;47.792;12.076;2022-10-31T13:42:02;5.17;;;2.77;;
15228;SDS011;7717;47.792;12.076;2022-10-31T13:44:47;5.20;;;2.30;;
15228;SDS011;7717;47.792;12.076;2022-10-31T13:47:28;5.00;;;2.27;;
15228;SDS011;7717;47.792;12.076;2022-10-31T13:50:55;4.73;;;2.33;;
15228;SDS011;7717;47.792;12.076;2022-10-31T13:52:50;5.30;;;2.50;;
15228;SDS011;7717;47.792;12.076;2022-10-31T13:55:39;8.80;;;3.00;;
15228;SDS011;7717;47.792;12.076;2022-10-31T14:03:39;6.40;;;2.40;;
15228;SDS011;7717;47.792;12.076;2022-10-31T14:06:08;6.63;;;3.13;;
15228;SDS011;7717;47.792;12.076;2022-10-31T14:08:36;6.73;;;2.60;;
15228;SDS011;7717;47.792;12.076;2022-10-31T14:11:05;6.83;;;2.70;;
15228;SDS011;7717;47.792;12.076;2022-10-31T14:13:35;6.88;;;2.85;;
15228;SDS011;7717;47.792;12.076;2022-10-31T14:16:03;6.05;;;3.22;;
15228;SDS011;7717;47.792;12.076;2022-10-31T14:18:31;5.75;;;2.70;;
15228;SDS011;7717;47.792;12.076;2022-10-31T14:20:59;7.93;;;2.65;;
15228;SDS011;7717;47.792;12.076;2022-10-31T14:25:53;6.13;;;3.47;;
15228;SDS011;7717;47.792;12.076;2022-10-31T14:30:53;4.90;;;2.75;;
15228;SDS011;7717;47.792;12.076;2022-10-31T14:33:19;6.13;;;2.63;;
15228;SDS011;7717;47.792;12.076;2022-10-31T14:38:24;4.47;;;2.73;;
15228;SDS011;7717;47.792;12.076;2022-10-31T14:43:59;6.57;;;2.40;;
15228;SDS011;7717;47.792;12.076;2022-10-31T14:49:44;5.97;;;2.57;;
15228;SDS011;7717;47.792;12.076;2022-10-31T14:52:28;5.63;;;2.30;;
15228;SDS011;7717;47.792;12.076;2022-10-31T14:54:55;6.87;;;2.60;;
15228;SDS011;7717;47.792;12.076;2022-10-31T14:57:26;9.17;;;2.57;;
15228;SDS011;7717;47.792;12.076;2022-10-31T14:59:56;9.53;;;2.93;;
15228;SDS011;7717;47.792;12.076;2022-10-31T15:02:27;9.83;;;2.83;;
15228;SDS011;7717;47.792;12.076;2022-10-31T15:05:01;5.67;;;2.57;;
15228;SDS011;7717;47.792;12.076;2022-10-31T15:07:32;6.27;;;2.63;;
15228;SDS011;7717;47.792;12.076;2022-10-31T15:10:00;7.67;;;2.70;;
15228;SDS011;7717;47.792;12.076;2022-10-31T15:12:32;6.27;;;2.70;;
15228;SDS011;7717;47.792;12.076;2022-10-31T15:15:19;4.53;;;2.10;;
15228;SDS011;7717;47.792;12.076;2022-10-31T15:17:54;7.07;;;2.87;;
15228;SDS011;7717;47.792;12.076;2022-10-31T15:20:22;7.83;;;3.53;;
15228;SDS011;7717;47.792;12.076;2022-10-31T15:22:49;5.17;;;3.03;;
15228;SDS011;7717;47.792;12.076;2022-10-31T15:25:19;7.30;;;2.50;;
15228;SDS011;7717;47.792;12.076;2022-10-31T15:27:47;3.93;;;2.20;;
15228;SDS011;7717;47.792;12.076;2022-10-31T15:30:19;5.63;;;2.47;;
15228;SDS011;7717;47.792;12.076;2022-10-31T15:32:46;7.50;;;2.53;;
15228;SDS011;7717;47.792;12.076;2022-10-31T15:35:31;5.13;;;2.30;;
15228;SDS011;7717;47.792;12.076;2022-10-31T15:37:57;6.30;;;3.30;;
15228;SDS011;7717;47.792;12.076;2022-10-31T15:40:24;7.07;;;2.90;;
15228;SDS011;7717;47.792;12.076;2022-10-31T15:42:52;7.60;;;3.70;;
15228;SDS011;7717;47.792;12.076;2022-10-31T15:45:22;3.60;;;2.97;;
15228;SDS011;7717;47.792;12.076;2022-10-31T15:53:02;8.20;;;3.83;;
15228;SDS011;7717;47.792;12.076;2022-10-31T15:55:31;6.07;;;2.97;;
15228;SDS011;7717;47.792;12.076;2022-10-31T15:58:02;6.30;;;3.00;;
15228;SDS011;7717;47.792;12.076;2022-10-31T16:00:36;6.30;;;3.47;;
15228;SDS011;7717;47.792;12.076;2022-10-31T16:03:07;7.33;;;3.60;;
15228;SDS011;7717;47.792;12.076;2022-10-31T16:05:37;4.27;;;2.70;;
15228;SDS011;7717;47.792;12.076;2022-10-31T16:08:48;6.80;;;3.20;;
15228;SDS011;7717;47.792;12.076;2022-10-31T16:13:38;6.77;;;5.00;;
15228;SDS011;7717;47.792;12.076;2022-10-31T16:16:24;10.50;;;5.57;;
15228;SDS011;7717;47.792;12.076;2022-10-31T16:18:51;7.63;;;4.70;;
15228;SDS011;7717;47.792;12.076;2022-10-31T16:21:25;10.73;;;4.67;;
15228;SDS011;7717;47.792;12.076;2022-10-31T16:23:55;13.23;;;8.77;;
15228;SDS011;7717;47.792;12.076;2022-10-31T16:26:24;12.27;;;7.60;;
15228;SDS011;7717;47.792;12.076;2022-10-31T16:28:54;13.23;;;7.43;;
15228;SDS011;7717;47.792;12.076;2022-10-31T16:31:29;9.43;;;7.03;;
15228;SDS011;7717;47.792;12.076;2022-10-31T16:36:35;8.30;;;7.10;;
15228;SDS011;7717;47.792;12.076;2022-10-31T16:39:03;15.60;;;10.33;;
15228;SDS011;7717;47.792;12.076;2022-10-31T16:41:29;12.17;;;8.40;;
15228;SDS011;7717;47.792;12.076;2022-10-31T16:43:55;16.80;;;11.47;;
15228;SDS011;7717;47.792;12.076;2022-10-31T16:46:22;15.97;;;10.07;;
15228;SDS011;7717;47.792;12.076;2022-10-31T16:48:49;19.87;;;10.50;;
15228;SDS011;7717;47.792;12.076;2022-10-31T16:51:14;25.93;;;20.33;;
15228;SDS011;7717;47.792;12.076;2022-10-31T16:53:40;24.87;;;13.87;;
15228;SDS011;7717;47.792;12.076;2022-10-31T16:56:05;18.77;;;10.93;;
15228;SDS011;7717;47.792;12.076;2022-10-31T16:58:41;11.37;;;8.53;;
15228;SDS011;7717;47.792;12.076;2022-10-31T17:01:06;11.50;;;8.40;;
15228;SDS011;7717;47.792;12.076;2022-10-31T17:03:32;12.37;;;9.63;;
15228;SDS011;7717;47.792;12.076;2022-10-31T17:05:58;19.13;;;11.70;;
15228;SDS011;7717;47.792;12.076;2022-10-31T17:08:24;18.33;;;11.67;;
15228;SDS011;7717;47.792;12.076;2022-10-31T17:10:53;22.53;;;12.33;;